createdAt,value
2023-01-15T00:03:01.253Z,11.26
2023-01-15T00:05:28.032Z,11.28
2023-01-15T00:07:54.727Z,11.26
2023-01-15T00:10:21.651Z,11.24
2023-01-15T00:15:19.525Z,11.20
2023-01-15T00:17:46.058Z,11.24
2023-01-15T00:20:13.195Z,11.23
2023-01-15T00:22:40.782Z,11.28
2023-01-15T00:25:26.698Z,11.25
2023-01-15T00:27:53.299Z,11.21
2023-01-15T00:32:59.037Z,11.19
2023-01-15T00:35:25.912Z,11.22
2023-01-15T00:40:23.751Z,11.21
2023-01-15T00:42:54.430Z,11.25
2023-01-15T00:45:22.267Z,11.31
2023-01-15T00:47:50.671Z,11.26
2023-01-15T00:50:17.368Z,11.28
2023-01-15T00:52:44.026Z,11.30
2023-01-15T00:55:10.627Z,11.32
2023-01-15T00:57:37.288Z,11.27
2023-01-15T01:00:05.114Z,11.30
2023-01-15T01:02:31.787Z,11.33
2023-01-15T01:04:58.595Z,11.28
2023-01-15T01:07:25.154Z,11.32
2023-01-15T01:09:51.792Z,11.35
2023-01-15T01:12:18.456Z,11.36
2023-01-15T01:14:45.066Z,11.41
2023-01-15T01:17:12.745Z,11.38
2023-01-15T01:19:39.347Z,11.37
2023-01-15T01:22:05.950Z,11.40
2023-01-15T01:24:32.662Z,11.50
2023-01-15T01:26:59.331Z,11.53
2023-01-15T01:29:26.022Z,11.55
2023-01-15T01:31:52.745Z,11.55
2023-01-15T01:34:19.366Z,11.62
2023-01-15T01:36:46.085Z,11.60
2023-01-15T01:39:18.377Z,11.59
2023-01-15T01:41:46.375Z,11.60
2023-01-15T01:44:34.930Z,11.64
2023-01-15T01:47:05.531Z,11.69
2023-01-15T01:49:32.340Z,11.66
2023-01-15T01:55:02.147Z,11.62
2023-01-15T01:57:29.198Z,11.62
2023-01-15T01:59:58.140Z,11.61
2023-01-15T02:04:56.302Z,11.57
2023-01-15T02:07:22.977Z,11.60
2023-01-15T02:09:49.658Z,11.64
2023-01-15T02:12:28.798Z,11.64
2023-01-15T02:15:09.491Z,11.63
2023-01-15T02:17:53.875Z,11.60
2023-01-15T02:20:40.800Z,11.61
2023-01-15T02:23:31.124Z,11.67
2023-01-15T02:26:26.667Z,11.61
2023-01-15T02:28:57.490Z,11.64
2023-01-15T02:31:36.366Z,11.65
2023-01-15T02:37:02.144Z,11.64
2023-01-15T02:42:10.587Z,11.66
2023-01-15T02:44:45.983Z,11.70
2023-01-15T02:47:13.890Z,11.67
2023-01-15T02:49:42.979Z,11.68
2023-01-15T02:52:30.047Z,11.65
2023-01-15T02:55:03.459Z,11.61
2023-01-15T02:57:35.020Z,11.64
2023-01-15T03:00:05.747Z,11.61
2023-01-15T03:02:40.183Z,11.71
2023-01-15T03:05:17.027Z,11.66
2023-01-15T03:07:48.321Z,11.65
2023-01-15T03:10:15.556Z,11.61
2023-01-15T03:13:02.972Z,11.58
2023-01-15T03:16:02.009Z,11.63
2023-01-15T03:21:09.850Z,11.53
2023-01-15T03:23:40.068Z,11.52
2023-01-15T03:26:06.826Z,11.50
2023-01-15T03:28:36.563Z,11.52
2023-01-15T03:33:35.464Z,11.52
2023-01-15T03:36:02.640Z,11.52
2023-01-15T03:38:33.183Z,11.52
2023-01-15T03:41:18.501Z,11.50
2023-01-15T03:44:30.865Z,11.55
2023-01-15T03:47:04.252Z,11.56
2023-01-15T03:49:52.541Z,11.60
2023-01-15T03:52:28.398Z,11.60
2023-01-15T03:55:32.858Z,11.55
2023-01-15T03:58:20.043Z,11.61
2023-01-15T04:00:52.456Z,11.58
2023-01-15T04:03:22.419Z,11.60
2023-01-15T04:05:51.591Z,11.61
2023-01-15T04:08:19.948Z,11.62
2023-01-15T04:11:00.442Z,11.62
2023-01-15T04:13:30.815Z,11.64
2023-01-15T04:15:57.811Z,11.64
2023-01-15T04:18:24.542Z,11.67
2023-01-15T04:20:51.695Z,11.63
2023-01-15T04:23:18.293Z,11.63
2023-01-15T04:25:44.909Z,11.58
2023-01-15T04:28:13.071Z,11.60
2023-01-15T04:30:39.861Z,11.67
2023-01-15T04:33:06.441Z,11.64
2023-01-15T04:35:33.060Z,11.66
2023-01-15T04:38:00.612Z,11.64
2023-01-15T04:43:42.548Z,11.65
2023-01-15T04:46:09.122Z,11.58
2023-01-15T04:48:35.732Z,11.62
2023-01-15T04:51:04.468Z,11.67
2023-01-15T04:53:31.105Z,11.62
2023-01-15T04:58:37.478Z,11.65
2023-01-15T05:01:10.112Z,11.62
2023-01-15T05:03:36.709Z,11.66
2023-01-15T05:06:04.131Z,11.68
2023-01-15T05:08:30.909Z,11.61
2023-01-15T05:11:02.664Z,11.61
2023-01-15T05:13:30.280Z,11.67
2023-01-15T05:15:57.015Z,11.65
2023-01-15T05:18:23.607Z,11.65
2023-01-15T05:20:51.484Z,11.67
2023-01-15T05:23:18.091Z,11.63
2023-01-15T05:25:44.608Z,11.62
2023-01-15T05:28:11.135Z,11.10
2023-01-15T05:30:37.654Z,10.79
2023-01-15T05:33:04.326Z,10.49
2023-01-15T05:35:30.903Z,10.38
2023-01-15T05:37:57.487Z,10.17
2023-01-15T05:40:24.068Z,9.95
2023-01-15T05:42:50.627Z,9.90
2023-01-15T05:45:17.298Z,9.85
2023-01-15T05:47:43.864Z,9.66
2023-01-15T05:50:11.155Z,9.59
2023-01-15T05:52:37.781Z,9.45
2023-01-15T05:57:36.215Z,9.40
2023-01-15T06:02:41.967Z,9.23
2023-01-15T06:05:08.977Z,9.13
2023-01-15T06:07:35.555Z,9.06
2023-01-15T06:10:02.107Z,9.07
2023-01-15T06:12:28.679Z,9.18
2023-01-15T06:14:55.244Z,9.04
2023-01-15T06:17:21.924Z,9.12
2023-01-15T06:19:48.476Z,9.07
2023-01-15T06:22:15.068Z,9.07
2023-01-15T06:24:41.603Z,9.03
2023-01-15T06:27:08.192Z,8.97
2023-01-15T06:29:34.752Z,9.03
2023-01-15T06:32:01.363Z,8.96
2023-01-15T06:34:27.996Z,9.05
2023-01-15T06:39:25.905Z,8.89
2023-01-15T06:42:11.063Z,8.84
2023-01-15T06:47:34.420Z,8.70
2023-01-15T06:50:01.017Z,8.66
2023-01-15T06:52:28.770Z,8.54
2023-01-15T06:57:26.819Z,8.33
2023-01-15T06:59:53.427Z,8.25
2023-01-15T07:04:53.393Z,8.07
2023-01-15T07:07:21.140Z,8.23
2023-01-15T07:09:47.864Z,7.95
2023-01-15T07:12:14.752Z,7.93
2023-01-15T07:14:41.426Z,7.86
2023-01-15T07:17:08.269Z,7.58
2023-01-15T07:19:36.017Z,7.50
2023-01-15T07:22:02.555Z,7.52
2023-01-15T07:24:29.246Z,7.50
2023-01-15T07:26:55.895Z,7.39
2023-01-15T07:29:23.474Z,7.36
2023-01-15T07:31:50.899Z,7.40
2023-01-15T07:34:17.470Z,7.35
2023-01-15T07:36:44.042Z,7.36
2023-01-15T07:39:11.706Z,7.34
2023-01-15T07:41:57.356Z,7.29
2023-01-15T07:44:42.786Z,7.26
2023-01-15T07:50:19.624Z,7.22
2023-01-15T07:52:46.789Z,7.12
2023-01-15T07:55:14.045Z,7.07
2023-01-15T07:57:41.892Z,7.13
2023-01-15T08:00:15.329Z,7.07
2023-01-15T08:02:42.179Z,7.08
2023-01-15T08:07:47.473Z,7.13
2023-01-15T08:10:14.659Z,7.07
2023-01-15T08:13:00.286Z,7.19
2023-01-15T08:15:31.793Z,7.12
2023-01-15T08:17:58.442Z,7.14
2023-01-15T08:20:26.908Z,7.13
2023-01-15T08:22:53.943Z,7.23
2023-01-15T08:25:23.591Z,7.23
2023-01-15T08:27:50.758Z,7.25
2023-01-15T08:30:20.277Z,7.18
2023-01-15T08:32:46.833Z,7.14
2023-01-15T08:35:13.953Z,7.13
2023-01-15T08:37:41.842Z,7.03
2023-01-15T08:40:10.073Z,7.05
2023-01-15T08:42:36.675Z,7.08
2023-01-15T08:45:03.538Z,7.06
2023-01-15T08:47:32.142Z,7.08
2023-01-15T08:49:58.790Z,7.02
2023-01-15T08:54:57.769Z,6.96
2023-01-15T08:57:24.440Z,6.96
2023-01-15T08:59:51.045Z,7.08
2023-01-15T09:02:18.449Z,7.09
2023-01-15T09:07:16.957Z,7.06
2023-01-15T09:09:43.581Z,6.92
2023-01-15T09:12:10.430Z,6.91
2023-01-15T09:14:59.700Z,6.84
2023-01-15T09:17:23.563Z,6.87
2023-01-15T09:19:50.205Z,6.92
2023-01-15T09:22:16.757Z,6.74
2023-01-15T09:27:17.078Z,6.65
2023-01-15T09:29:43.597Z,6.64
2023-01-15T09:32:10.749Z,6.58
2023-01-15T09:34:37.405Z,6.58
2023-01-15T09:37:04.130Z,6.60
2023-01-15T09:39:30.817Z,6.62
2023-01-15T09:42:34.699Z,6.62
2023-01-15T09:45:13.955Z,6.50
2023-01-15T09:48:18.394Z,6.56
2023-01-15T09:50:59.926Z,6.61
2023-01-15T09:53:48.046Z,6.61
2023-01-15T09:56:25.619Z,6.67
2023-01-15T09:58:53.107Z,6.74
2023-01-15T10:01:31.828Z,6.82
2023-01-15T10:04:22.842Z,6.88
2023-01-15T10:07:04.146Z,6.92
2023-01-15T10:09:37.601Z,6.73
2023-01-15T10:12:34.061Z,6.66
2023-01-15T10:17:59.786Z,6.55
2023-01-15T10:20:31.212Z,6.63
2023-01-15T10:23:48.091Z,6.55
2023-01-15T10:26:28.483Z,6.52
2023-01-15T10:29:16.973Z,6.39
2023-01-15T10:32:12.697Z,6.46
2023-01-15T10:35:12.857Z,6.46
2023-01-15T10:38:00.997Z,6.42
2023-01-15T10:40:55.759Z,6.21
2023-01-15T10:43:31.660Z,6.18
2023-01-15T10:46:09.076Z,6.24
2023-01-15T10:48:41.743Z,6.17
2023-01-15T10:51:24.587Z,6.09
2023-01-15T10:53:51.123Z,6.07
2023-01-15T10:56:30.477Z,6.09
2023-01-15T10:59:12.332Z,5.91
2023-01-15T11:01:40.131Z,5.90
2023-01-15T11:04:10.343Z,5.79
2023-01-15T11:06:37.004Z,5.76
2023-01-15T11:09:10.395Z,5.52
2023-01-15T11:12:00.296Z,5.51
2023-01-15T11:15:03.547Z,5.47
2023-01-15T11:17:56.257Z,5.50
2023-01-15T11:20:27.337Z,5.47
2023-01-15T11:22:55.623Z,5.36
2023-01-15T11:25:29.771Z,5.36
2023-01-15T11:36:01.665Z,5.19
2023-01-15T11:38:47.098Z,5.17
2023-01-15T11:41:20.231Z,5.23
2023-01-15T11:44:13.964Z,5.09
2023-01-15T11:46:59.539Z,5.08
2023-01-15T11:49:44.702Z,5.14
2023-01-15T11:52:21.833Z,5.17
2023-01-15T11:54:53.114Z,5.26
2023-01-15T11:57:28.733Z,5.08
2023-01-15T11:59:55.431Z,5.11
2023-01-15T12:02:36.914Z,5.06
2023-01-15T12:07:39.866Z,5.09
2023-01-15T12:10:41.448Z,5.06
2023-01-15T12:13:10.930Z,5.14
2023-01-15T12:15:46.340Z,5.21
2023-01-15T12:18:33.730Z,5.18
2023-01-15T12:21:03.090Z,5.31
2023-01-15T12:24:02.199Z,5.32
2023-01-15T12:26:34.965Z,5.24
2023-01-15T12:29:27.416Z,5.26
2023-01-15T12:32:03.226Z,5.26
2023-01-15T12:34:35.551Z,5.28
2023-01-15T12:37:10.911Z,5.23
2023-01-15T12:39:43.425Z,5.36
2023-01-15T12:42:36.068Z,5.46
2023-01-15T12:45:09.577Z,5.55
2023-01-15T12:48:04.135Z,5.55
2023-01-15T12:50:45.328Z,5.61
2023-01-15T12:53:23.963Z,5.52
2023-01-15T12:56:19.799Z,5.65
2023-01-15T12:59:18.655Z,5.63
2023-01-15T13:02:13.526Z,5.69
2023-01-15T13:04:54.070Z,5.65
2023-01-15T13:07:30.263Z,5.59
2023-01-15T13:10:29.500Z,5.63
2023-01-15T13:13:02.524Z,5.73
2023-01-15T13:18:32.161Z,6.12
2023-01-15T13:21:04.809Z,6.05
2023-01-15T13:23:37.462Z,6.04
2023-01-15T13:26:18.647Z,6.11
2023-01-15T13:31:37.530Z,6.14
2023-01-15T13:37:21.967Z,6.19
2023-01-15T13:39:51.223Z,6.05
2023-01-15T13:42:34.270Z,6.10
2023-01-15T13:45:06.694Z,6.16
2023-01-15T13:47:38.329Z,6.18
2023-01-15T13:50:14.245Z,6.14
2023-01-15T13:55:34.662Z,6.14
2023-01-15T13:58:01.284Z,6.12
2023-01-15T14:00:36.920Z,6.24
2023-01-15T14:03:27.975Z,6.27
2023-01-15T14:05:59.962Z,6.29
2023-01-15T14:08:38.311Z,6.38
2023-01-15T14:11:05.745Z,6.42
2023-01-15T14:14:01.614Z,6.46
2023-01-15T14:16:56.239Z,6.40
2023-01-15T14:20:00.387Z,6.34
2023-01-15T14:22:55.952Z,6.34
2023-01-15T14:25:31.333Z,6.34
2023-01-15T14:28:24.629Z,6.33
2023-01-15T14:30:57.253Z,6.29
2023-01-15T14:33:29.504Z,6.38
2023-01-15T14:35:56.683Z,6.30
2023-01-15T14:38:27.884Z,6.37
2023-01-15T14:41:04.788Z,6.53
2023-01-15T14:43:35.381Z,6.47
2023-01-15T14:46:38.313Z,6.45
2023-01-15T14:49:05.070Z,6.41
2023-01-15T14:51:34.812Z,6.37
2023-01-15T14:59:23.448Z,6.20
2023-01-15T15:02:01.866Z,6.17
2023-01-15T15:04:40.720Z,6.19
2023-01-15T15:10:02.579Z,6.37
2023-01-15T15:12:42.673Z,6.38
2023-01-15T15:15:21.754Z,6.36
2023-01-15T15:18:13.100Z,6.35
2023-01-15T15:20:42.475Z,6.46
2023-01-15T15:23:31.653Z,6.35
2023-01-15T15:26:01.264Z,6.34
2023-01-15T15:28:28.836Z,6.40
2023-01-15T15:31:00.481Z,6.32
2023-01-15T15:36:11.348Z,6.30
2023-01-15T15:38:41.904Z,6.25
2023-01-15T15:41:12.240Z,6.27
2023-01-15T15:44:15.961Z,6.34
2023-01-15T15:47:09.203Z,6.26
2023-01-15T15:52:20.939Z,6.25
2023-01-15T15:55:01.048Z,6.19
2023-01-15T15:57:31.324Z,6.14
2023-01-15T15:59:58.097Z,6.11
2023-01-15T16:02:31.524Z,6.13
2023-01-15T16:05:00.739Z,6.05
2023-01-15T16:07:34.756Z,6.06
2023-01-15T16:10:12.736Z,6.16
2023-01-15T16:12:46.849Z,6.09
2023-01-15T16:15:19.653Z,6.10
2023-01-15T16:17:46.976Z,6.10
2023-01-15T16:20:16.723Z,6.04
2023-01-15T16:22:56.074Z,6.02
2023-01-15T16:25:35.819Z,6.48
2023-01-15T16:28:03.478Z,5.90
2023-01-15T16:30:34.611Z,6.91
2023-01-15T16:33:07.101Z,6.25
2023-01-15T16:35:37.476Z,6.03
2023-01-15T16:38:05.347Z,5.96
2023-01-15T16:40:39.972Z,5.71
2023-01-15T16:43:12.435Z,5.70
2023-01-15T16:46:16.082Z,5.78
2023-01-15T16:48:47.100Z,5.69
2023-01-15T16:51:35.339Z,6.44
2023-01-15T16:54:06.446Z,6.17
2023-01-15T16:56:41.033Z,6.00
2023-01-15T16:59:40.837Z,6.13
2023-01-15T17:02:17.897Z,5.82
2023-01-15T17:04:45.899Z,5.66
2023-01-15T17:07:27.932Z,5.64
2023-01-15T17:09:57.602Z,5.54
2023-01-15T17:12:29.052Z,5.52
2023-01-15T17:15:20.530Z,5.55
2023-01-15T17:17:49.539Z,5.53
2023-01-15T17:20:19.112Z,5.55
2023-01-15T17:22:47.371Z,5.54
2023-01-15T17:25:24.528Z,5.48
2023-01-15T17:32:54.348Z,5.40
2023-01-15T17:35:26.101Z,5.41
2023-01-15T17:37:52.778Z,5.43
2023-01-15T17:40:19.895Z,5.44
2023-01-15T17:45:24.031Z,5.46
2023-01-15T17:47:50.777Z,5.42
2023-01-15T17:50:18.196Z,5.40
2023-01-15T17:52:45.672Z,5.34
2023-01-15T17:55:48.347Z,5.30
2023-01-15T17:58:35.309Z,5.32
2023-01-15T18:01:23.892Z,5.38
2023-01-15T18:04:11.917Z,5.43
2023-01-15T18:06:42.633Z,5.51
2023-01-15T18:09:09.367Z,5.50
2023-01-15T18:11:35.981Z,5.44
2023-01-15T18:14:02.550Z,5.37
2023-01-15T18:16:29.624Z,5.35
2023-01-15T18:18:56.300Z,5.27
2023-01-15T18:21:23.640Z,5.28
2023-01-15T18:23:50.246Z,5.14
2023-01-15T18:26:16.996Z,5.25
2023-01-15T18:28:45.348Z,5.19
2023-01-15T18:31:11.941Z,5.21
2023-01-15T18:33:38.589Z,5.16
2023-01-15T18:36:10.989Z,5.13
2023-01-15T18:38:38.824Z,5.15
2023-01-15T18:41:10.698Z,5.16
2023-01-15T18:43:56.032Z,5.12
2023-01-15T18:46:41.642Z,5.18
2023-01-15T18:49:08.275Z,5.08
2023-01-15T18:51:34.866Z,5.05
2023-01-15T18:54:01.605Z,5.07
2023-01-15T18:56:40.040Z,5.14
2023-01-15T18:59:08.621Z,5.06
2023-01-15T19:01:35.667Z,7.00
2023-01-15T19:04:02.791Z,6.89
2023-01-15T19:06:29.361Z,6.11
2023-01-15T19:08:55.883Z,5.82
2023-01-15T19:11:22.443Z,5.58
2023-01-15T19:17:01.118Z,5.32
2023-01-15T19:19:27.701Z,5.19
2023-01-15T19:22:13.349Z,5.14
2023-01-15T19:24:40.365Z,5.12
2023-01-15T19:27:07.429Z,5.30
2023-01-15T19:29:33.935Z,5.49
2023-01-15T19:32:00.607Z,5.84
2023-01-15T19:34:34.722Z,5.37
2023-01-15T19:37:01.616Z,5.34
2023-01-15T19:39:29.144Z,5.23
2023-01-15T19:42:15.427Z,5.41
2023-01-15T19:45:00.568Z,5.55
2023-01-15T19:47:52.387Z,5.17
2023-01-15T19:50:22.846Z,5.08
2023-01-15T19:52:51.651Z,5.07
2023-01-15T19:55:19.434Z,5.08
2023-01-15T19:57:48.330Z,5.11
2023-01-15T20:00:18.207Z,4.96
2023-01-15T20:02:46.208Z,4.98
2023-01-15T20:05:14.494Z,4.95
2023-01-15T20:07:42.103Z,4.92
2023-01-15T20:10:14.582Z,5.02
2023-01-15T20:12:59.968Z,5.01
2023-01-15T20:17:59.038Z,5.01
2023-01-15T20:20:26.353Z,5.00
2023-01-15T20:22:52.995Z,5.05
2023-01-15T20:25:19.552Z,5.03
2023-01-15T20:27:46.086Z,4.97
2023-01-15T20:30:15.058Z,5.04
2023-01-15T20:32:45.005Z,5.02
2023-01-15T20:35:14.651Z,4.93
2023-01-15T20:37:41.488Z,4.99
2023-01-15T20:40:08.788Z,5.12
2023-01-15T20:42:54.573Z,5.12
2023-01-15T20:45:21.234Z,5.11
2023-01-15T20:48:06.433Z,5.11
2023-01-15T20:50:36.366Z,5.08
2023-01-15T20:53:04.607Z,4.95
2023-01-15T20:55:38.900Z,4.91
2023-01-15T20:58:12.397Z,4.92
2023-01-15T21:00:38.971Z,4.81
2023-01-15T21:03:06.205Z,4.74
2023-01-15T21:05:32.773Z,4.79
2023-01-15T21:07:59.309Z,4.71
2023-01-15T21:10:25.879Z,4.72
2023-01-15T21:12:53.114Z,4.62
2023-01-15T21:15:20.415Z,4.53
2023-01-15T21:17:47.363Z,4.64
2023-01-15T21:20:16.094Z,4.63
2023-01-15T21:22:43.270Z,4.61
2023-01-15T21:25:10.235Z,4.64
2023-01-15T21:27:37.915Z,4.59
2023-01-15T21:30:06.178Z,5.39
2023-01-15T21:32:33.109Z,5.00
2023-01-15T21:34:59.639Z,4.88
2023-01-15T21:37:26.238Z,4.75
2023-01-15T21:39:52.792Z,4.61
2023-01-15T21:42:40.324Z,4.31
2023-01-15T21:45:08.065Z,4.52
2023-01-15T21:47:36.989Z,4.47
2023-01-15T21:50:05.572Z,4.50
2023-01-15T21:52:34.142Z,4.54
2023-01-15T21:55:00.799Z,4.46
2023-01-15T21:57:30.916Z,4.50
2023-01-15T21:59:57.511Z,4.41
2023-01-15T22:02:24.290Z,4.38
2023-01-15T22:04:51.011Z,4.40
2023-01-15T22:07:18.531Z,4.39
2023-01-15T22:09:45.493Z,4.37
2023-01-15T22:12:13.569Z,4.39
2023-01-15T22:14:40.128Z,4.45
2023-01-15T22:17:08.146Z,4.40
2023-01-15T22:19:34.731Z,4.41
2023-01-15T22:27:15.013Z,4.46
2023-01-15T22:29:41.886Z,4.53
2023-01-15T22:34:47.783Z,4.58
2023-01-15T22:37:15.152Z,4.58
2023-01-15T22:39:41.736Z,4.50
2023-01-15T22:45:06.114Z,4.37
2023-01-15T22:47:32.754Z,4.36
2023-01-15T22:49:59.397Z,4.39
2023-01-15T22:52:26.079Z,4.37
2023-01-15T22:54:52.810Z,4.44
2023-01-15T22:57:20.034Z,4.50
2023-01-15T22:59:46.782Z,4.49
2023-01-15T23:02:13.615Z,4.42
2023-01-15T23:04:40.325Z,4.39
2023-01-15T23:07:07.147Z,4.50
2023-01-15T23:09:34.999Z,4.62
2023-01-15T23:12:01.625Z,4.53
2023-01-15T23:14:28.237Z,4.50
2023-01-15T23:16:54.863Z,4.54
2023-01-15T23:19:21.567Z,4.52
2023-01-15T23:21:48.166Z,4.48
2023-01-15T23:24:14.738Z,4.59
2023-01-15T23:26:41.389Z,4.61
2023-01-15T23:29:08.056Z,4.55
2023-01-15T23:31:35.403Z,4.66
2023-01-15T23:34:02.011Z,4.69
2023-01-15T23:36:28.635Z,4.67
2023-01-15T23:38:55.250Z,4.67
2023-01-15T23:41:42.023Z,4.64
2023-01-15T23:44:38.372Z,4.76
2023-01-15T23:47:07.367Z,4.72
2023-01-15T23:49:34.465Z,4.67
2023-01-15T23:52:01.763Z,4.66
2023-01-15T23:54:30.936Z,4.47
2023-01-15T23:59:33.911Z,4.49
